createdAt,value
2017-07-01T10:51:32.039Z,21.20
2017-07-01T10:54:00.316Z,21.10
2017-07-01T10:56:28.605Z,20.80
2017-07-01T10:58:57.276Z,20.70
2017-07-01T11:04:34.760Z,20.80
2017-07-01T11:07:03.052Z,20.90
2017-07-01T11:09:31.345Z,20.90
2017-07-01T11:12:00.204Z,21.00
2017-07-01T11:14:28.481Z,21.00
2017-07-01T11:16:56.749Z,21.00
2017-07-01T11:19:25.435Z,21.00
2017-07-01T11:21:53.751Z,21.00
2017-07-01T11:24:22.019Z,21.10
2017-07-01T11:26:50.685Z,21.00
2017-07-01T11:29:18.966Z,21.10
2017-07-01T11:31:47.237Z,21.10
2017-07-01T11:34:15.973Z,21.00
2017-07-01T11:36:44.273Z,20.90
2017-07-01T11:39:12.584Z,20.90
2017-07-01T11:41:41.219Z,20.60
2017-07-01T11:44:09.530Z,20.20
2017-07-01T11:46:37.831Z,20.00
2017-07-01T11:49:06.469Z,19.90
2017-07-01T11:51:34.754Z,19.90
2017-07-01T11:54:03.047Z,19.70
2017-07-01T11:56:31.724Z,19.70
2017-07-01T11:59:00.013Z,19.80
2017-07-01T12:01:28.298Z,19.80
2017-07-01T12:03:56.959Z,19.80
2017-07-01T12:06:25.269Z,19.80
2017-07-01T12:08:54.331Z,19.90
2017-07-01T12:11:22.999Z,19.90
2017-07-01T12:13:51.266Z,19.90
2017-07-01T12:16:19.532Z,19.90
2017-07-01T12:18:48.229Z,19.90
2017-07-01T12:21:16.559Z,19.90
2017-07-01T12:23:45.626Z,20.40
2017-07-01T12:26:14.278Z,20.40
2017-07-01T12:28:42.591Z,20.50
2017-07-01T12:31:10.901Z,20.60
2017-07-01T12:33:40.321Z,20.60
2017-07-01T12:36:08.617Z,20.60
2017-07-01T12:38:36.904Z,20.60
2017-07-01T12:41:05.598Z,20.70
2017-07-01T12:43:33.894Z,20.70
2017-07-01T12:46:02.201Z,20.70
2017-07-01T12:48:30.926Z,20.70
2017-07-01T12:50:59.209Z,20.70
2017-07-01T12:53:27.495Z,20.70
2017-07-01T12:55:56.161Z,20.70
2017-07-01T12:58:24.457Z,20.80
2017-07-01T13:00:52.749Z,20.70
2017-07-01T13:03:22.223Z,20.70
2017-07-01T13:05:50.513Z,20.70
2017-07-01T13:08:18.791Z,20.80
2017-07-01T13:10:47.452Z,20.80
2017-07-01T13:13:15.766Z,20.80
2017-07-01T13:15:44.835Z,20.80
2017-07-01T13:18:13.510Z,20.80
2017-07-01T13:20:41.821Z,20.80
2017-07-01T13:23:10.851Z,20.90
2017-07-01T13:25:39.583Z,20.80
2017-07-01T13:28:08.054Z,20.90
2017-07-01T13:30:36.344Z,20.90
2017-07-01T13:33:05.001Z,20.90
2017-07-01T13:35:33.303Z,20.90
2017-07-01T13:38:01.587Z,20.90
2017-07-01T13:40:31.059Z,20.80
2017-07-01T13:42:59.349Z,20.80
2017-07-01T13:45:27.718Z,20.80
2017-07-01T13:47:56.399Z,20.80
2017-07-01T13:50:24.675Z,20.80
2017-07-01T13:52:52.961Z,20.80
2017-07-01T13:55:21.632Z,20.70
2017-07-01T13:57:50.017Z,20.70
2017-07-01T14:00:18.305Z,20.70
2017-07-01T14:02:46.958Z,20.70
2017-07-01T14:05:15.226Z,20.70
2017-07-01T14:07:43.507Z,20.70
2017-07-01T14:10:12.211Z,20.70
2017-07-01T14:12:40.486Z,20.80
2017-07-01T14:15:08.782Z,20.80
2017-07-01T14:17:37.446Z,20.80
2017-07-01T14:20:05.720Z,20.80
2017-07-01T14:22:34.009Z,20.80
2017-07-01T14:25:02.663Z,20.80
2017-07-01T14:27:30.925Z,20.90
2017-07-01T14:29:59.217Z,20.90
2017-07-01T14:32:27.910Z,20.90
2017-07-01T14:34:56.197Z,20.90
2017-07-01T14:37:24.528Z,21.00
2017-07-01T14:39:53.239Z,21.00
2017-07-01T14:42:21.544Z,21.00
2017-07-01T14:44:49.842Z,21.00
2017-07-01T14:47:19.427Z,21.10
2017-07-01T14:49:48.490Z,21.10
2017-07-01T14:52:16.784Z,21.10
2017-07-01T14:54:45.448Z,21.10
2017-07-01T14:57:13.738Z,21.10
2017-07-01T14:59:42.032Z,21.20
2017-07-01T15:02:10.702Z,21.20
2017-07-01T15:04:38.965Z,21.30
2017-07-01T15:07:07.240Z,21.30
2017-07-01T15:09:35.890Z,21.30
2017-07-01T15:12:04.153Z,21.30
2017-07-01T15:14:32.478Z,21.30
2017-07-01T15:17:01.190Z,21.30
2017-07-01T15:19:29.479Z,21.20
2017-07-01T15:21:58.529Z,21.20
2017-07-01T15:24:27.208Z,21.20
2017-07-01T15:26:55.489Z,21.20
2017-07-01T15:29:23.781Z,21.20
2017-07-01T15:31:52.454Z,21.10
2017-07-01T15:34:20.792Z,21.20
2017-07-01T15:36:49.079Z,21.20
2017-07-01T15:39:17.780Z,21.10
2017-07-01T15:41:46.040Z,21.10
2017-07-01T15:44:14.318Z,21.10
2017-07-01T15:46:43.019Z,21.20
2017-07-01T15:49:11.318Z,21.20
2017-07-01T15:51:39.600Z,21.10
2017-07-01T15:54:08.266Z,21.10
2017-07-01T15:56:36.585Z,21.20
2017-07-01T15:59:05.626Z,21.30
2017-07-01T16:01:53.950Z,21.20
2017-07-01T16:04:22.316Z,21.20
2017-07-01T16:06:50.591Z,21.20
2017-07-01T16:09:19.328Z,21.20
2017-07-01T16:11:47.633Z,21.20
2017-07-01T16:14:16.689Z,21.20
2017-07-01T16:16:45.318Z,21.20
2017-07-01T16:19:13.618Z,21.20
2017-07-01T16:21:41.918Z,21.20
2017-07-01T16:24:10.565Z,21.10
2017-07-01T16:26:38.878Z,21.20
2017-07-01T16:29:07.163Z,21.10
2017-07-01T16:31:35.963Z,21.10
2017-07-01T16:34:04.272Z,21.10
2017-07-01T16:36:32.568Z,21.10
2017-07-01T16:39:01.272Z,21.10
2017-07-01T16:41:29.554Z,21.10
2017-07-01T16:43:57.909Z,21.20
2017-07-01T16:46:26.713Z,21.10
2017-07-01T16:48:55.013Z,21.20
2017-07-01T16:51:23.310Z,21.10
2017-07-01T16:53:52.777Z,21.20
2017-07-01T16:56:21.041Z,21.20
2017-07-01T16:58:49.416Z,21.20
2017-07-01T17:01:18.170Z,21.10
2017-07-01T17:03:46.496Z,21.10
2017-07-01T17:06:14.850Z,21.10
2017-07-01T17:08:43.548Z,21.10
2017-07-01T17:11:11.982Z,21.10
2017-07-01T17:13:40.266Z,21.10
2017-07-01T17:16:09.007Z,21.10
2017-07-01T17:18:37.317Z,21.10
2017-07-01T17:21:06.357Z,21.20
2017-07-01T17:23:35.047Z,21.10
2017-07-01T17:26:03.401Z,21.10
2017-07-01T17:28:31.689Z,21.10
2017-07-01T17:31:00.393Z,21.10
2017-07-01T17:33:28.675Z,21.10
2017-07-01T17:35:56.975Z,21.10
2017-07-01T17:38:26.438Z,21.20
2017-07-01T17:40:54.735Z,21.20
2017-07-01T17:43:23.162Z,21.20
2017-07-01T17:45:51.874Z,21.20
2017-07-01T17:48:20.196Z,21.20
2017-07-01T17:50:49.218Z,21.30
2017-07-01T17:53:17.936Z,21.20
2017-07-01T17:55:46.290Z,21.30
2017-07-01T17:58:14.572Z,21.30
2017-07-01T18:00:43.287Z,21.20
2017-07-01T18:03:11.574Z,21.20
2017-07-01T18:05:39.866Z,21.20
2017-07-01T18:08:09.278Z,21.10
2017-07-01T18:10:37.567Z,21.10
2017-07-01T18:13:05.951Z,21.10
2017-07-01T18:15:34.862Z,21.10
2017-07-01T18:18:03.148Z,21.10
2017-07-01T18:20:31.429Z,21.10
2017-07-01T18:23:00.072Z,21.10
2017-07-01T18:25:28.396Z,21.10
2017-07-01T18:27:56.703Z,21.10
2017-07-01T18:30:26.482Z,21.10
2017-07-01T18:32:54.986Z,21.10
2017-07-01T18:35:24.193Z,21.10
2017-07-01T18:37:52.878Z,21.10
2017-07-01T18:40:21.212Z,21.10
2017-07-01T18:42:49.520Z,21.10
2017-07-01T18:45:19.190Z,21.10
2017-07-01T18:47:47.509Z,21.00
2017-07-01T18:50:16.575Z,21.10
2017-07-01T18:52:45.206Z,21.00
2017-07-01T18:55:13.566Z,21.00
2017-07-01T18:57:42.646Z,21.00
2017-07-01T19:00:12.129Z,21.00
2017-07-01T19:02:40.419Z,21.00
2017-07-01T19:05:08.689Z,21.00
2017-07-01T19:07:37.312Z,21.00
2017-07-01T19:10:05.696Z,21.00
2017-07-01T19:12:34.054Z,21.00
2017-07-01T19:15:03.485Z,21.00
2017-07-01T19:17:31.793Z,21.00
2017-07-01T19:20:00.118Z,21.00
2017-07-01T19:22:28.827Z,20.90
2017-07-01T19:24:57.136Z,20.90
2017-07-01T19:27:25.450Z,20.90
2017-07-01T19:29:54.194Z,20.90
2017-07-01T19:32:22.747Z,20.90
2017-07-01T19:34:51.002Z,20.90
2017-07-01T19:37:19.703Z,20.90
2017-07-01T19:39:48.021Z,20.80
2017-07-01T19:42:16.310Z,20.90
2017-07-01T19:44:45.720Z,20.80
2017-07-01T19:47:14.806Z,20.80
2017-07-01T19:49:43.839Z,20.80
2017-07-01T19:52:12.657Z,20.80
2017-07-01T19:54:40.963Z,20.80
2017-07-01T19:57:10.058Z,20.80
2017-07-01T19:59:39.511Z,20.70
2017-07-01T20:02:07.803Z,20.70
2017-07-01T20:04:36.259Z,20.70
2017-07-01T20:07:05.066Z,20.70
2017-07-01T20:09:33.377Z,20.70
2017-07-01T20:12:02.469Z,20.70
2017-07-01T20:14:31.121Z,20.70
2017-07-01T20:16:59.434Z,20.70
2017-07-01T20:19:28.499Z,20.60
2017-07-01T20:21:57.187Z,20.70
2017-07-01T20:24:25.572Z,20.70
2017-07-01T20:26:53.854Z,20.70
2017-07-01T20:29:22.490Z,20.60
2017-07-01T20:31:50.807Z,20.60
2017-07-01T20:34:19.108Z,20.70
2017-07-01T20:36:48.789Z,20.60
2017-07-01T20:39:17.143Z,20.60
2017-07-01T20:41:45.469Z,20.60
2017-07-01T20:44:14.938Z,20.60
2017-07-01T20:46:43.258Z,20.60
2017-07-01T20:49:11.559Z,20.60
2017-07-01T20:51:40.276Z,20.60
2017-07-01T20:54:08.563Z,20.50
2017-07-01T20:56:36.840Z,20.50
2017-07-01T20:59:05.481Z,20.50
2017-07-01T21:01:33.864Z,20.50
2017-07-01T21:04:02.172Z,20.50
2017-07-01T21:06:30.841Z,20.50
2017-07-01T21:08:59.156Z,20.50
2017-07-01T21:11:28.233Z,20.50
2017-07-01T21:13:56.903Z,20.50
2017-07-01T21:16:25.184Z,20.50
2017-07-01T21:18:53.483Z,20.50
2017-07-01T21:21:22.926Z,20.40
2017-07-01T21:23:51.218Z,20.40
2017-07-01T21:26:19.649Z,20.40
2017-07-01T21:28:49.100Z,20.40
2017-07-01T21:31:17.371Z,20.40
2017-07-01T21:33:45.659Z,20.40
2017-07-01T21:36:14.343Z,20.40
2017-07-01T21:38:42.657Z,20.40
2017-07-01T21:41:11.721Z,20.40
2017-07-01T21:43:40.398Z,20.40
2017-07-01T21:46:08.670Z,20.40
2017-07-01T21:48:36.958Z,20.40
2017-07-01T21:51:05.638Z,20.40
2017-07-01T21:53:33.938Z,20.30
2017-07-01T21:56:02.279Z,20.40
2017-07-01T21:58:30.991Z,20.30
2017-07-01T22:00:59.403Z,20.30
2017-07-01T22:03:27.676Z,20.30
2017-07-01T22:05:57.122Z,20.30
2017-07-01T22:08:25.412Z,20.30
2017-07-01T22:10:53.717Z,20.30
2017-07-01T22:13:23.116Z,20.40
2017-07-01T22:15:52.170Z,20.30
2017-07-01T22:18:20.471Z,20.30
2017-07-01T22:20:49.130Z,20.40
2017-07-01T22:23:17.397Z,20.30
2017-07-01T22:25:45.830Z,20.30
2017-07-01T22:28:15.294Z,20.30
2017-07-01T22:30:43.565Z,20.30
2017-07-01T22:33:11.847Z,20.30
2017-07-01T22:35:40.529Z,20.30
2017-07-01T22:38:08.821Z,20.30
2017-07-01T22:40:37.090Z,20.40
2017-07-01T22:43:05.870Z,20.30
2017-07-01T22:45:34.150Z,20.30
2017-07-01T22:48:02.763Z,20.30
2017-07-01T22:50:31.526Z,20.30
2017-07-01T22:52:59.821Z,20.30
2017-07-01T22:55:28.862Z,20.30
2017-07-01T22:57:57.654Z,20.30
2017-07-01T23:00:25.944Z,20.20
2017-07-01T23:02:54.225Z,20.20
2017-07-01T23:05:22.899Z,20.20
2017-07-01T23:07:51.192Z,20.20
2017-07-01T23:10:19.802Z,20.20
2017-07-01T23:12:49.198Z,20.20
2017-07-01T23:15:18.260Z,20.20
2017-07-01T23:17:46.529Z,20.20
2017-07-01T23:20:15.211Z,20.20
2017-07-01T23:22:43.504Z,20.20
2017-07-01T23:25:11.806Z,20.20
2017-07-01T23:27:41.261Z,20.10
2017-07-01T23:30:09.571Z,20.10
2017-07-01T23:32:37.836Z,20.10
2017-07-01T23:35:06.483Z,20.10
2017-07-01T23:37:34.779Z,20.10
2017-07-01T23:40:03.079Z,20.10
2017-07-01T23:42:31.846Z,20.10
2017-07-01T23:45:00.555Z,20.10
2017-07-01T23:47:29.627Z,20.10
2017-07-01T23:49:58.509Z,20.10
2017-07-01T23:52:26.819Z,20.10
2017-07-01T23:54:55.113Z,20.10
2017-07-01T23:57:24.554Z,20.10
2017-07-01T23:59:52.837Z,20.00
